sensor_id;sensor_type;location;lat;lon;timestamp;P1;durP1;ratioP1;P2;durP2;ratioP2
22650;SDS011;11492;42.646;23.400;2022-12-18T00:01:22;9.85;;;6.00;;
22650;SDS011;11492;42.646;23.400;2022-12-18T00:03:49;8.98;;;5.90;;
22650;SDS011;11492;42.646;23.400;2022-12-18T00:06:16;9.13;;;5.65;;
22650;SDS011;11492;42.646;23.400;2022-12-18T00:08:42;10.40;;;6.07;;
22650;SDS011;11492;42.646;23.400;2022-12-18T00:11:10;8.73;;;5.50;;
22650;SDS011;11492;42.646;23.400;2022-12-18T00:13:37;7.80;;;5.43;;
22650;SDS011;11492;42.646;23.400;2022-12-18T00:16:04;9.05;;;4.72;;
22650;SDS011;11492;42.646;23.400;2022-12-18T00:18:31;7.80;;;5.43;;
22650;SDS011;11492;42.646;23.400;2022-12-18T00:21:01;8.25;;;5.85;;
22650;SDS011;11492;42.646;23.400;2022-12-18T00:23:28;10.77;;;6.30;;
22650;SDS011;11492;42.646;23.400;2022-12-18T00:25:55;7.97;;;5.07;;
22650;SDS011;11492;42.646;23.400;2022-12-18T00:28:24;9.73;;;6.15;;
22650;SDS011;11492;42.646;23.400;2022-12-18T00:30:49;11.65;;;6.35;;
22650;SDS011;11492;42.646;23.400;2022-12-18T00:33:16;11.20;;;6.13;;
22650;SDS011;11492;42.646;23.400;2022-12-18T00:35:42;10.20;;;6.10;;
22650;SDS011;11492;42.646;23.400;2022-12-18T00:38:08;9.60;;;6.30;;
22650;SDS011;11492;42.646;23.400;2022-12-18T00:40:33;12.23;;;6.78;;
22650;SDS011;11492;42.646;23.400;2022-12-18T00:42:58;10.38;;;6.45;;
22650;SDS011;11492;42.646;23.400;2022-12-18T00:45:25;10.05;;;6.70;;
22650;SDS011;11492;42.646;23.400;2022-12-18T00:47:51;9.10;;;6.10;;
22650;SDS011;11492;42.646;23.400;2022-12-18T00:50:18;9.13;;;5.97;;
22650;SDS011;11492;42.646;23.400;2022-12-18T00:52:43;10.93;;;6.53;;
22650;SDS011;11492;42.646;23.400;2022-12-18T00:55:09;8.85;;;6.00;;
22650;SDS011;11492;42.646;23.400;2022-12-18T00:57:35;14.35;;;6.72;;
22650;SDS011;11492;42.646;23.400;2022-12-18T01:00:00;9.13;;;5.80;;
22650;SDS011;11492;42.646;23.400;2022-12-18T01:02:26;9.80;;;6.18;;
22650;SDS011;11492;42.646;23.400;2022-12-18T01:04:52;10.85;;;6.70;;
22650;SDS011;11492;42.646;23.400;2022-12-18T01:07:17;9.98;;;5.72;;
22650;SDS011;11492;42.646;23.400;2022-12-18T01:09:43;12.48;;;5.95;;
22650;SDS011;11492;42.646;23.400;2022-12-18T01:12:08;13.35;;;5.88;;
22650;SDS011;11492;42.646;23.400;2022-12-18T01:14:33;10.85;;;6.18;;
22650;SDS011;11492;42.646;23.400;2022-12-18T01:16:59;9.90;;;6.32;;
22650;SDS011;11492;42.646;23.400;2022-12-18T01:19:24;9.35;;;5.85;;
22650;SDS011;11492;42.646;23.400;2022-12-18T01:21:49;9.85;;;6.20;;
22650;SDS011;11492;42.646;23.400;2022-12-18T01:24:15;9.95;;;5.95;;
22650;SDS011;11492;42.646;23.400;2022-12-18T01:26:40;8.63;;;6.18;;
22650;SDS011;11492;42.646;23.400;2022-12-18T01:29:06;10.95;;;6.38;;
22650;SDS011;11492;42.646;23.400;2022-12-18T01:31:32;13.32;;;7.13;;
22650;SDS011;11492;42.646;23.400;2022-12-18T01:34:00;11.65;;;6.85;;
22650;SDS011;11492;42.646;23.400;2022-12-18T01:36:28;10.73;;;6.85;;
22650;SDS011;11492;42.646;23.400;2022-12-18T01:38:55;10.07;;;6.65;;
22650;SDS011;11492;42.646;23.400;2022-12-18T01:41:23;10.32;;;6.38;;
22650;SDS011;11492;42.646;23.400;2022-12-18T01:46:17;9.63;;;6.57;;
22650;SDS011;11492;42.646;23.400;2022-12-18T01:48:44;10.23;;;7.32;;
22650;SDS011;11492;42.646;23.400;2022-12-18T01:51:11;11.80;;;7.45;;
22650;SDS011;11492;42.646;23.400;2022-12-18T01:53:38;15.10;;;7.78;;
22650;SDS011;11492;42.646;23.400;2022-12-18T01:56:05;11.55;;;7.47;;
22650;SDS011;11492;42.646;23.400;2022-12-18T02:01:20;12.30;;;7.80;;
22650;SDS011;11492;42.646;23.400;2022-12-18T02:03:47;11.00;;;7.30;;
22650;SDS011;11492;42.646;23.400;2022-12-18T02:11:46;15.50;;;8.18;;
22650;SDS011;11492;42.646;23.400;2022-12-18T02:17:06;12.70;;;6.85;;
22650;SDS011;11492;42.646;23.400;2022-12-18T02:22:29;11.73;;;7.32;;
22650;SDS011;11492;42.646;23.400;2022-12-18T02:27:48;13.43;;;7.70;;
22650;SDS011;11492;42.646;23.400;2022-12-18T02:30:16;11.68;;;7.28;;
22650;SDS011;11492;42.646;23.400;2022-12-18T02:32:45;11.13;;;7.20;;
22650;SDS011;11492;42.646;23.400;2022-12-18T02:35:16;13.40;;;7.57;;
22650;SDS011;11492;42.646;23.400;2022-12-18T02:37:44;12.07;;;7.63;;
22650;SDS011;11492;42.646;23.400;2022-12-18T02:40:12;13.32;;;7.50;;
22650;SDS011;11492;42.646;23.400;2022-12-18T02:42:40;11.20;;;6.95;;
22650;SDS011;11492;42.646;23.400;2022-12-18T02:45:06;11.73;;;7.10;;
22650;SDS011;11492;42.646;23.400;2022-12-18T02:47:32;10.23;;;6.75;;
22650;SDS011;11492;42.646;23.400;2022-12-18T02:50:05;12.52;;;7.63;;
22650;SDS011;11492;42.646;23.400;2022-12-18T02:55:32;11.73;;;6.72;;
22650;SDS011;11492;42.646;23.400;2022-12-18T02:58:12;9.85;;;6.45;;
22650;SDS011;11492;42.646;23.400;2022-12-18T03:03:54;9.25;;;6.60;;
22650;SDS011;11492;42.646;23.400;2022-12-18T03:06:24;15.18;;;7.25;;
22650;SDS011;11492;42.646;23.400;2022-12-18T03:08:56;10.77;;;6.88;;
22650;SDS011;11492;42.646;23.400;2022-12-18T03:11:24;11.07;;;7.03;;
22650;SDS011;11492;42.646;23.400;2022-12-18T03:14:12;13.90;;;6.97;;
22650;SDS011;11492;42.646;23.400;2022-12-18T03:16:41;11.73;;;7.10;;
22650;SDS011;11492;42.646;23.400;2022-12-18T03:19:11;13.15;;;7.97;;
22650;SDS011;11492;42.646;23.400;2022-12-18T03:21:42;13.07;;;7.60;;
22650;SDS011;11492;42.646;23.400;2022-12-18T03:24:10;14.00;;;8.63;;
22650;SDS011;11492;42.646;23.400;2022-12-18T03:26:36;17.45;;;8.20;;
22650;SDS011;11492;42.646;23.400;2022-12-18T03:29:08;13.38;;;6.75;;
22650;SDS011;11492;42.646;23.400;2022-12-18T03:31:39;16.67;;;7.97;;
22650;SDS011;11492;42.646;23.400;2022-12-18T03:34:09;12.52;;;7.20;;
22650;SDS011;11492;42.646;23.400;2022-12-18T03:36:38;12.68;;;6.97;;
22650;SDS011;11492;42.646;23.400;2022-12-18T03:39:03;13.63;;;7.20;;
22650;SDS011;11492;42.646;23.400;2022-12-18T03:41:31;12.57;;;7.38;;
22650;SDS011;11492;42.646;23.400;2022-12-18T03:49:37;10.55;;;6.97;;
22650;SDS011;11492;42.646;23.400;2022-12-18T03:52:13;15.68;;;7.30;;
22650;SDS011;11492;42.646;23.400;2022-12-18T03:54:40;11.80;;;6.78;;
22650;SDS011;11492;42.646;23.400;2022-12-18T03:57:26;12.75;;;7.47;;
22650;SDS011;11492;42.646;23.400;2022-12-18T03:59:55;11.85;;;7.40;;
22650;SDS011;11492;42.646;23.400;2022-12-18T04:02:24;14.63;;;7.60;;
22650;SDS011;11492;42.646;23.400;2022-12-18T04:04:51;11.73;;;7.60;;
22650;SDS011;11492;42.646;23.400;2022-12-18T04:07:18;16.50;;;7.75;;
22650;SDS011;11492;42.646;23.400;2022-12-18T04:09:46;13.32;;;7.72;;
22650;SDS011;11492;42.646;23.400;2022-12-18T04:12:13;14.07;;;7.72;;
22650;SDS011;11492;42.646;23.400;2022-12-18T04:14:38;14.50;;;8.32;;
22650;SDS011;11492;42.646;23.400;2022-12-18T04:17:04;14.55;;;8.50;;
22650;SDS011;11492;42.646;23.400;2022-12-18T04:19:29;11.75;;;6.80;;
22650;SDS011;11492;42.646;23.400;2022-12-18T04:21:54;12.98;;;7.88;;
22650;SDS011;11492;42.646;23.400;2022-12-18T04:24:20;13.35;;;7.68;;
22650;SDS011;11492;42.646;23.400;2022-12-18T04:26:45;13.45;;;8.20;;
22650;SDS011;11492;42.646;23.400;2022-12-18T04:29:11;16.00;;;8.43;;
22650;SDS011;11492;42.646;23.400;2022-12-18T04:31:36;15.07;;;8.18;;
22650;SDS011;11492;42.646;23.400;2022-12-18T04:34:02;13.35;;;7.55;;
22650;SDS011;11492;42.646;23.400;2022-12-18T04:36:28;15.30;;;8.80;;
22650;SDS011;11492;42.646;23.400;2022-12-18T04:38:53;16.17;;;7.72;;
22650;SDS011;11492;42.646;23.400;2022-12-18T04:41:19;13.13;;;8.18;;
22650;SDS011;11492;42.646;23.400;2022-12-18T04:43:44;17.67;;;9.27;;
22650;SDS011;11492;42.646;23.400;2022-12-18T04:46:09;14.85;;;9.30;;
22650;SDS011;11492;42.646;23.400;2022-12-18T04:48:35;15.45;;;9.07;;
22650;SDS011;11492;42.646;23.400;2022-12-18T04:51:01;16.63;;;9.52;;
22650;SDS011;11492;42.646;23.400;2022-12-18T04:53:26;17.25;;;9.85;;
22650;SDS011;11492;42.646;23.400;2022-12-18T04:56:01;18.48;;;10.52;;
22650;SDS011;11492;42.646;23.400;2022-12-18T04:58:31;15.95;;;10.00;;
22650;SDS011;11492;42.646;23.400;2022-12-18T05:00:56;17.13;;;9.40;;
22650;SDS011;11492;42.646;23.400;2022-12-18T05:03:22;17.00;;;10.20;;
22650;SDS011;11492;42.646;23.400;2022-12-18T05:05:50;19.45;;;10.10;;
22650;SDS011;11492;42.646;23.400;2022-12-18T05:08:16;16.48;;;8.90;;
22650;SDS011;11492;42.646;23.400;2022-12-18T05:10:42;21.20;;;10.82;;
22650;SDS011;11492;42.646;23.400;2022-12-18T05:13:07;20.55;;;10.82;;
22650;SDS011;11492;42.646;23.400;2022-12-18T05:15:33;21.77;;;11.45;;
22650;SDS011;11492;42.646;23.400;2022-12-18T05:17:59;21.30;;;11.32;;
22650;SDS011;11492;42.646;23.400;2022-12-18T05:20:25;20.58;;;11.93;;
22650;SDS011;11492;42.646;23.400;2022-12-18T05:22:51;18.45;;;11.23;;
22650;SDS011;11492;42.646;23.400;2022-12-18T05:25:18;19.60;;;11.25;;
22650;SDS011;11492;42.646;23.400;2022-12-18T05:27:45;22.38;;;12.25;;
22650;SDS011;11492;42.646;23.400;2022-12-18T05:30:11;17.30;;;10.82;;
22650;SDS011;11492;42.646;23.400;2022-12-18T05:32:38;16.42;;;8.65;;
22650;SDS011;11492;42.646;23.400;2022-12-18T05:35:04;21.20;;;11.18;;
22650;SDS011;11492;42.646;23.400;2022-12-18T05:37:31;17.52;;;10.45;;
22650;SDS011;11492;42.646;23.400;2022-12-18T05:39:56;22.75;;;11.20;;
22650;SDS011;11492;42.646;23.400;2022-12-18T05:42:21;21.83;;;10.82;;
22650;SDS011;11492;42.646;23.400;2022-12-18T05:44:47;20.58;;;11.15;;
22650;SDS011;11492;42.646;23.400;2022-12-18T05:47:12;21.02;;;11.88;;
22650;SDS011;11492;42.646;23.400;2022-12-18T05:49:38;24.30;;;12.25;;
22650;SDS011;11492;42.646;23.400;2022-12-18T05:52:03;19.05;;;11.57;;
22650;SDS011;11492;42.646;23.400;2022-12-18T05:54:29;20.45;;;11.80;;
22650;SDS011;11492;42.646;23.400;2022-12-18T05:56:54;20.35;;;10.80;;
22650;SDS011;11492;42.646;23.400;2022-12-18T05:59:20;21.15;;;11.65;;
22650;SDS011;11492;42.646;23.400;2022-12-18T06:01:45;24.67;;;11.88;;
22650;SDS011;11492;42.646;23.400;2022-12-18T06:04:11;20.45;;;12.40;;
22650;SDS011;11492;42.646;23.400;2022-12-18T06:06:37;25.65;;;12.50;;
22650;SDS011;11492;42.646;23.400;2022-12-18T06:09:02;23.67;;;12.57;;
22650;SDS011;11492;42.646;23.400;2022-12-18T06:11:33;21.00;;;10.48;;
22650;SDS011;11492;42.646;23.400;2022-12-18T06:14:00;22.30;;;12.52;;
22650;SDS011;11492;42.646;23.400;2022-12-18T06:16:27;24.45;;;12.85;;
22650;SDS011;11492;42.646;23.400;2022-12-18T06:18:53;22.70;;;12.45;;
22650;SDS011;11492;42.646;23.400;2022-12-18T06:21:20;25.23;;;13.77;;
22650;SDS011;11492;42.646;23.400;2022-12-18T06:23:46;24.98;;;14.32;;
22650;SDS011;11492;42.646;23.400;2022-12-18T06:26:11;25.55;;;12.98;;
22650;SDS011;11492;42.646;23.400;2022-12-18T06:28:38;24.27;;;13.32;;
22650;SDS011;11492;42.646;23.400;2022-12-18T06:31:04;27.75;;;13.60;;
22650;SDS011;11492;42.646;23.400;2022-12-18T06:33:29;24.58;;;14.05;;
22650;SDS011;11492;42.646;23.400;2022-12-18T06:35:59;30.92;;;14.60;;
22650;SDS011;11492;42.646;23.400;2022-12-18T06:38:29;28.35;;;15.00;;
22650;SDS011;11492;42.646;23.400;2022-12-18T06:40:54;26.13;;;13.63;;
22650;SDS011;11492;42.646;23.400;2022-12-18T06:43:19;24.92;;;14.25;;
22650;SDS011;11492;42.646;23.400;2022-12-18T06:45:45;25.10;;;13.70;;
22650;SDS011;11492;42.646;23.400;2022-12-18T06:48:14;24.25;;;12.27;;
22650;SDS011;11492;42.646;23.400;2022-12-18T06:50:41;23.98;;;12.73;;
22650;SDS011;11492;42.646;23.400;2022-12-18T06:53:07;23.27;;;13.48;;
22650;SDS011;11492;42.646;23.400;2022-12-18T06:55:33;24.83;;;14.10;;
22650;SDS011;11492;42.646;23.400;2022-12-18T06:57:58;22.27;;;11.63;;
22650;SDS011;11492;42.646;23.400;2022-12-18T07:00:24;21.98;;;12.15;;
22650;SDS011;11492;42.646;23.400;2022-12-18T07:02:49;25.08;;;13.88;;
22650;SDS011;11492;42.646;23.400;2022-12-18T07:05:14;25.45;;;13.80;;
22650;SDS011;11492;42.646;23.400;2022-12-18T07:07:40;22.75;;;13.13;;
22650;SDS011;11492;42.646;23.400;2022-12-18T07:10:05;26.08;;;13.50;;
22650;SDS011;11492;42.646;23.400;2022-12-18T07:12:31;26.02;;;13.27;;
22650;SDS011;11492;42.646;23.400;2022-12-18T07:14:56;28.27;;;13.57;;
22650;SDS011;11492;42.646;23.400;2022-12-18T07:17:22;22.30;;;13.10;;
22650;SDS011;11492;42.646;23.400;2022-12-18T07:19:47;25.10;;;13.73;;
22650;SDS011;11492;42.646;23.400;2022-12-18T07:22:12;23.70;;;13.15;;
22650;SDS011;11492;42.646;23.400;2022-12-18T07:24:38;24.63;;;13.75;;
22650;SDS011;11492;42.646;23.400;2022-12-18T07:27:03;24.20;;;13.48;;
22650;SDS011;11492;42.646;23.400;2022-12-18T07:29:29;26.38;;;14.07;;
22650;SDS011;11492;42.646;23.400;2022-12-18T07:31:54;28.73;;;13.88;;
22650;SDS011;11492;42.646;23.400;2022-12-18T07:34:19;30.25;;;14.18;;
22650;SDS011;11492;42.646;23.400;2022-12-18T07:36:45;25.75;;;14.40;;
22650;SDS011;11492;42.646;23.400;2022-12-18T07:39:10;28.60;;;14.25;;
22650;SDS011;11492;42.646;23.400;2022-12-18T07:41:36;25.75;;;14.68;;
22650;SDS011;11492;42.646;23.400;2022-12-18T07:44:02;24.65;;;14.57;;
22650;SDS011;11492;42.646;23.400;2022-12-18T07:46:27;26.70;;;14.57;;
22650;SDS011;11492;42.646;23.400;2022-12-18T07:48:52;26.58;;;14.77;;
22650;SDS011;11492;42.646;23.400;2022-12-18T07:51:18;29.88;;;14.45;;
22650;SDS011;11492;42.646;23.400;2022-12-18T07:53:43;29.95;;;15.32;;
22650;SDS011;11492;42.646;23.400;2022-12-18T07:56:10;27.15;;;15.18;;
22650;SDS011;11492;42.646;23.400;2022-12-18T07:58:36;27.90;;;15.93;;
22650;SDS011;11492;42.646;23.400;2022-12-18T08:01:06;31.05;;;16.67;;
22650;SDS011;11492;42.646;23.400;2022-12-18T08:03:35;28.83;;;16.20;;
22650;SDS011;11492;42.646;23.400;2022-12-18T08:06:02;31.65;;;15.93;;
22650;SDS011;11492;42.646;23.400;2022-12-18T08:08:29;34.95;;;17.02;;
22650;SDS011;11492;42.646;23.400;2022-12-18T08:10:55;30.38;;;16.73;;
22650;SDS011;11492;42.646;23.400;2022-12-18T08:13:21;32.58;;;18.20;;
22650;SDS011;11492;42.646;23.400;2022-12-18T08:15:54;31.73;;;17.88;;
22650;SDS011;11492;42.646;23.400;2022-12-18T08:18:24;34.65;;;18.08;;
22650;SDS011;11492;42.646;23.400;2022-12-18T08:20:49;31.35;;;18.17;;
22650;SDS011;11492;42.646;23.400;2022-12-18T08:23:15;31.63;;;17.55;;
22650;SDS011;11492;42.646;23.400;2022-12-18T08:25:40;31.90;;;18.05;;
22650;SDS011;11492;42.646;23.400;2022-12-18T08:28:06;33.08;;;17.98;;
22650;SDS011;11492;42.646;23.400;2022-12-18T08:30:31;36.13;;;18.20;;
22650;SDS011;11492;42.646;23.400;2022-12-18T08:32:57;35.97;;;18.45;;
22650;SDS011;11492;42.646;23.400;2022-12-18T08:35:23;37.55;;;18.27;;
22650;SDS011;11492;42.646;23.400;2022-12-18T08:37:48;34.08;;;17.92;;
22650;SDS011;11492;42.646;23.400;2022-12-18T08:40:13;36.42;;;19.65;;
22650;SDS011;11492;42.646;23.400;2022-12-18T08:42:39;37.67;;;19.15;;
22650;SDS011;11492;42.646;23.400;2022-12-18T08:45:23;33.53;;;18.88;;
22650;SDS011;11492;42.646;23.400;2022-12-18T08:47:49;38.40;;;18.08;;
22650;SDS011;11492;42.646;23.400;2022-12-18T08:50:15;37.30;;;19.20;;
22650;SDS011;11492;42.646;23.400;2022-12-18T08:52:40;35.85;;;17.23;;
22650;SDS011;11492;42.646;23.400;2022-12-18T08:55:06;39.75;;;18.60;;
22650;SDS011;11492;42.646;23.400;2022-12-18T08:57:32;34.65;;;18.67;;
22650;SDS011;11492;42.646;23.400;2022-12-18T08:59:57;31.38;;;17.17;;
22650;SDS011;11492;42.646;23.400;2022-12-18T09:02:23;32.00;;;16.80;;
22650;SDS011;11492;42.646;23.400;2022-12-18T09:04:48;30.65;;;17.17;;
22650;SDS011;11492;42.646;23.400;2022-12-18T09:07:14;34.03;;;17.75;;
22650;SDS011;11492;42.646;23.400;2022-12-18T09:09:39;30.50;;;16.50;;
22650;SDS011;11492;42.646;23.400;2022-12-18T09:12:04;29.15;;;16.75;;
22650;SDS011;11492;42.646;23.400;2022-12-18T09:14:30;30.90;;;17.33;;
22650;SDS011;11492;42.646;23.400;2022-12-18T09:16:55;31.15;;;16.55;;
22650;SDS011;11492;42.646;23.400;2022-12-18T09:19:21;32.78;;;15.90;;
22650;SDS011;11492;42.646;23.400;2022-12-18T09:21:46;32.70;;;16.05;;
22650;SDS011;11492;42.646;23.400;2022-12-18T09:24:12;33.70;;;16.95;;
22650;SDS011;11492;42.646;23.400;2022-12-18T09:26:38;32.53;;;16.50;;
22650;SDS011;11492;42.646;23.400;2022-12-18T09:29:04;31.60;;;16.73;;
22650;SDS011;11492;42.646;23.400;2022-12-18T09:31:32;33.78;;;16.48;;
22650;SDS011;11492;42.646;23.400;2022-12-18T09:33:58;32.53;;;17.05;;
22650;SDS011;11492;42.646;23.400;2022-12-18T09:36:23;30.88;;;16.35;;
22650;SDS011;11492;42.646;23.400;2022-12-18T09:38:48;32.22;;;16.55;;
22650;SDS011;11492;42.646;23.400;2022-12-18T09:41:59;34.08;;;17.17;;
22650;SDS011;11492;42.646;23.400;2022-12-18T09:47:00;32.83;;;17.13;;
22650;SDS011;11492;42.646;23.400;2022-12-18T09:49:44;32.17;;;17.50;;
22650;SDS011;11492;42.646;23.400;2022-12-18T09:52:14;34.88;;;16.08;;
22650;SDS011;11492;42.646;23.400;2022-12-18T09:54:55;31.55;;;16.60;;
22650;SDS011;11492;42.646;23.400;2022-12-18T09:57:23;35.65;;;17.08;;
22650;SDS011;11492;42.646;23.400;2022-12-18T09:59:54;30.20;;;16.13;;
22650;SDS011;11492;42.646;23.400;2022-12-18T10:02:24;29.92;;;15.48;;
22650;SDS011;11492;42.646;23.400;2022-12-18T10:05:13;30.23;;;15.10;;
22650;SDS011;11492;42.646;23.400;2022-12-18T10:11:02;25.27;;;14.07;;
22650;SDS011;11492;42.646;23.400;2022-12-18T10:13:42;29.48;;;14.82;;
22650;SDS011;11492;42.646;23.400;2022-12-18T10:22:08;25.75;;;14.18;;
22650;SDS011;11492;42.646;23.400;2022-12-18T10:27:39;33.15;;;16.58;;
22650;SDS011;11492;42.646;23.400;2022-12-18T10:30:12;27.38;;;15.15;;
22650;SDS011;11492;42.646;23.400;2022-12-18T10:32:39;32.95;;;15.38;;
22650;SDS011;11492;42.646;23.400;2022-12-18T10:35:07;26.77;;;15.23;;
22650;SDS011;11492;42.646;23.400;2022-12-18T10:37:58;30.60;;;15.65;;
22650;SDS011;11492;42.646;23.400;2022-12-18T10:40:26;32.67;;;15.73;;
22650;SDS011;11492;42.646;23.400;2022-12-18T10:43:04;32.75;;;15.45;;
22650;SDS011;11492;42.646;23.400;2022-12-18T10:45:37;29.40;;;15.65;;
22650;SDS011;11492;42.646;23.400;2022-12-18T10:48:02;30.15;;;16.33;;
22650;SDS011;11492;42.646;23.400;2022-12-18T10:50:29;30.17;;;16.38;;
22650;SDS011;11492;42.646;23.400;2022-12-18T10:52:58;35.40;;;17.80;;
22650;SDS011;11492;42.646;23.400;2022-12-18T10:55:32;32.45;;;16.33;;
22650;SDS011;11492;42.646;23.400;2022-12-18T11:03:35;31.55;;;15.88;;
22650;SDS011;11492;42.646;23.400;2022-12-18T11:08:31;35.67;;;17.38;;
22650;SDS011;11492;42.646;23.400;2022-12-18T11:10:57;38.45;;;18.17;;
22650;SDS011;11492;42.646;23.400;2022-12-18T11:13:23;31.65;;;17.63;;
22650;SDS011;11492;42.646;23.400;2022-12-18T11:15:50;34.10;;;17.52;;
22650;SDS011;11492;42.646;23.400;2022-12-18T11:18:22;35.25;;;18.42;;
22650;SDS011;11492;42.646;23.400;2022-12-18T11:20:53;34.85;;;17.75;;
22650;SDS011;11492;42.646;23.400;2022-12-18T11:23:24;34.90;;;17.88;;
22650;SDS011;11492;42.646;23.400;2022-12-18T11:25:51;30.92;;;17.20;;
22650;SDS011;11492;42.646;23.400;2022-12-18T11:28:26;27.73;;;15.45;;
22650;SDS011;11492;42.646;23.400;2022-12-18T11:36:47;29.73;;;14.02;;
22650;SDS011;11492;42.646;23.400;2022-12-18T11:39:20;30.55;;;15.75;;
22650;SDS011;11492;42.646;23.400;2022-12-18T11:42:13;31.90;;;16.05;;
22650;SDS011;11492;42.646;23.400;2022-12-18T11:47:31;30.90;;;15.80;;
22650;SDS011;11492;42.646;23.400;2022-12-18T11:50:10;33.75;;;15.95;;
22650;SDS011;11492;42.646;23.400;2022-12-18T11:52:41;29.80;;;15.95;;
22650;SDS011;11492;42.646;23.400;2022-12-18T12:00:26;30.10;;;16.05;;
22650;SDS011;11492;42.646;23.400;2022-12-18T12:05:25;32.72;;;16.02;;
22650;SDS011;11492;42.646;23.400;2022-12-18T12:08:22;30.52;;;16.10;;
22650;SDS011;11492;42.646;23.400;2022-12-18T12:13:43;28.48;;;15.55;;
22650;SDS011;11492;42.646;23.400;2022-12-18T12:21:48;33.70;;;16.15;;
22650;SDS011;11492;42.646;23.400;2022-12-18T12:30:09;28.83;;;15.38;;
22650;SDS011;11492;42.646;23.400;2022-12-18T12:38:42;32.67;;;15.50;;
22650;SDS011;11492;42.646;23.400;2022-12-18T12:41:12;33.58;;;18.00;;
22650;SDS011;11492;42.646;23.400;2022-12-18T12:46:44;32.08;;;16.48;;
22650;SDS011;11492;42.646;23.400;2022-12-18T12:49:17;34.30;;;16.17;;
22650;SDS011;11492;42.646;23.400;2022-12-18T12:51:45;31.90;;;16.20;;
22650;SDS011;11492;42.646;23.400;2022-12-18T12:54:25;35.97;;;16.40;;
22650;SDS011;11492;42.646;23.400;2022-12-18T12:59:49;33.75;;;16.77;;
22650;SDS011;11492;42.646;23.400;2022-12-18T13:05:21;33.35;;;17.48;;
22650;SDS011;11492;42.646;23.400;2022-12-18T13:08:05;30.15;;;16.23;;
22650;SDS011;11492;42.646;23.400;2022-12-18T13:10:37;32.03;;;16.70;;
22650;SDS011;11492;42.646;23.400;2022-12-18T13:13:12;58.67;;;30.85;;
22650;SDS011;11492;42.646;23.400;2022-12-18T13:15:43;37.70;;;19.83;;
22650;SDS011;11492;42.646;23.400;2022-12-18T13:18:23;38.63;;;20.15;;
22650;SDS011;11492;42.646;23.400;2022-12-18T13:28:23;32.77;;;16.20;;
22650;SDS011;11492;42.646;23.400;2022-12-18T13:30:58;29.27;;;16.60;;
22650;SDS011;11492;42.646;23.400;2022-12-18T13:33:37;37.92;;;17.73;;
22650;SDS011;11492;42.646;23.400;2022-12-18T13:38:47;33.42;;;16.80;;
22650;SDS011;11492;42.646;23.400;2022-12-18T13:41:32;34.30;;;17.23;;
22650;SDS011;11492;42.646;23.400;2022-12-18T13:44:11;31.08;;;16.30;;
22650;SDS011;11492;42.646;23.400;2022-12-18T13:46:44;33.17;;;16.83;;
22650;SDS011;11492;42.646;23.400;2022-12-18T13:51:38;35.25;;;17.02;;
22650;SDS011;11492;42.646;23.400;2022-12-18T13:56:44;35.00;;;17.25;;
22650;SDS011;11492;42.646;23.400;2022-12-18T13:59:16;36.00;;;18.40;;
22650;SDS011;11492;42.646;23.400;2022-12-18T14:01:49;32.80;;;17.02;;
22650;SDS011;11492;42.646;23.400;2022-12-18T14:04:24;35.60;;;18.65;;
22650;SDS011;11492;42.646;23.400;2022-12-18T14:06:52;34.78;;;17.65;;
22650;SDS011;11492;42.646;23.400;2022-12-18T14:09:40;34.85;;;16.63;;
22650;SDS011;11492;42.646;23.400;2022-12-18T14:12:17;33.88;;;17.52;;
22650;SDS011;11492;42.646;23.400;2022-12-18T14:15:01;37.40;;;19.05;;
22650;SDS011;11492;42.646;23.400;2022-12-18T14:17:28;36.75;;;18.58;;
22650;SDS011;11492;42.646;23.400;2022-12-18T14:19:56;36.55;;;18.83;;
22650;SDS011;11492;42.646;23.400;2022-12-18T14:22:23;33.83;;;18.05;;
22650;SDS011;11492;42.646;23.400;2022-12-18T14:27:44;33.35;;;16.60;;
22650;SDS011;11492;42.646;23.400;2022-12-18T14:35:31;32.97;;;17.30;;
22650;SDS011;11492;42.646;23.400;2022-12-18T14:38:10;40.00;;;17.77;;
22650;SDS011;11492;42.646;23.400;2022-12-18T14:40:44;32.78;;;16.85;;
22650;SDS011;11492;42.646;23.400;2022-12-18T14:43:10;34.25;;;17.70;;
22650;SDS011;11492;42.646;23.400;2022-12-18T14:45:37;36.50;;;18.13;;
22650;SDS011;11492;42.646;23.400;2022-12-18T14:48:06;36.10;;;17.27;;
22650;SDS011;11492;42.646;23.400;2022-12-18T14:50:33;31.55;;;16.45;;
22650;SDS011;11492;42.646;23.400;2022-12-18T14:52:58;32.03;;;17.27;;
22650;SDS011;11492;42.646;23.400;2022-12-18T14:55:24;34.90;;;17.75;;
22650;SDS011;11492;42.646;23.400;2022-12-18T14:57:53;37.47;;;16.25;;
22650;SDS011;11492;42.646;23.400;2022-12-18T15:00:21;29.05;;;16.20;;
22650;SDS011;11492;42.646;23.400;2022-12-18T15:02:58;30.40;;;16.50;;
22650;SDS011;11492;42.646;23.400;2022-12-18T15:07:54;29.88;;;15.82;;
22650;SDS011;11492;42.646;23.400;2022-12-18T15:10:21;33.35;;;16.45;;
22650;SDS011;11492;42.646;23.400;2022-12-18T15:12:49;30.33;;;15.77;;
22650;SDS011;11492;42.646;23.400;2022-12-18T15:23:23;30.15;;;15.88;;
22650;SDS011;11492;42.646;23.400;2022-12-18T15:26:08;33.13;;;15.48;;
22650;SDS011;11492;42.646;23.400;2022-12-18T15:28:39;29.70;;;16.15;;
22650;SDS011;11492;42.646;23.400;2022-12-18T15:33:39;29.30;;;14.18;;
22650;SDS011;11492;42.646;23.400;2022-12-18T15:36:14;31.25;;;15.20;;
22650;SDS011;11492;42.646;23.400;2022-12-18T15:38:41;29.05;;;14.95;;
22650;SDS011;11492;42.646;23.400;2022-12-18T15:41:13;31.88;;;15.55;;
22650;SDS011;11492;42.646;23.400;2022-12-18T15:43:39;34.65;;;16.33;;
22650;SDS011;11492;42.646;23.400;2022-12-18T15:46:05;35.55;;;15.60;;
22650;SDS011;11492;42.646;23.400;2022-12-18T15:48:35;29.63;;;14.05;;
22650;SDS011;11492;42.646;23.400;2022-12-18T15:53:51;33.00;;;14.95;;
22650;SDS011;11492;42.646;23.400;2022-12-18T15:56:19;31.45;;;13.85;;
22650;SDS011;11492;42.646;23.400;2022-12-18T15:59:07;28.48;;;14.20;;
22650;SDS011;11492;42.646;23.400;2022-12-18T16:01:37;30.40;;;15.65;;
22650;SDS011;11492;42.646;23.400;2022-12-18T16:04:03;29.02;;;15.23;;
22650;SDS011;11492;42.646;23.400;2022-12-18T16:06:28;32.85;;;15.88;;
22650;SDS011;11492;42.646;23.400;2022-12-18T16:08:54;34.80;;;16.58;;
22650;SDS011;11492;42.646;23.400;2022-12-18T16:11:21;32.92;;;16.70;;
22650;SDS011;11492;42.646;23.400;2022-12-18T16:14:03;34.53;;;16.67;;
22650;SDS011;11492;42.646;23.400;2022-12-18T16:16:30;32.13;;;15.77;;
22650;SDS011;11492;42.646;23.400;2022-12-18T16:18:55;30.83;;;15.60;;
22650;SDS011;11492;42.646;23.400;2022-12-18T16:21:21;120.25;;;54.50;;
22650;SDS011;11492;42.646;23.400;2022-12-18T16:23:46;45.10;;;23.27;;
22650;SDS011;11492;42.646;23.400;2022-12-18T16:26:12;30.85;;;16.73;;
22650;SDS011;11492;42.646;23.400;2022-12-18T16:28:37;33.97;;;16.10;;
22650;SDS011;11492;42.646;23.400;2022-12-18T16:31:04;36.35;;;16.92;;
22650;SDS011;11492;42.646;23.400;2022-12-18T16:33:30;33.92;;;17.27;;
22650;SDS011;11492;42.646;23.400;2022-12-18T16:35:55;34.47;;;17.20;;
22650;SDS011;11492;42.646;23.400;2022-12-18T16:38:21;35.97;;;16.25;;
22650;SDS011;11492;42.646;23.400;2022-12-18T16:40:46;32.88;;;16.83;;